TimeEDT,TemperatureF,Dew PointF,Humidity,Sea Level PressureIn,VisibilityMPH,Wind Direction,Wind SpeedMPH,Gust SpeedMPH,PrecipitationIn,Events,Conditions,WindDirDegrees,DateUTC
12:53 AM,51.1,44.1,77,30.27,10.0,Calm,Calm,-,N/A,,Clear,0,2013-03-29 04:53:00
1:53 AM,50.0,44.1,80,30.27,10.0,Calm,Calm,-,N/A,,Clear,0,2013-03-29 05:53:00
2:53 AM,48.9,42.1,77,30.26,10.0,Calm,Calm,-,N/A,,Clear,0,2013-03-29 06:53:00
3:53 AM,48.0,43.0,83,30.25,10.0,NE,3.5,-,N/A,,Clear,40,2013-03-29 07:53:00
4:53 AM,48.9,41.0,74,30.25,10.0,NE,4.6,-,N/A,,Clear,40,2013-03-29 08:53:00
5:53 AM,48.9,42.1,77,30.25,10.0,NE,5.8,-,N/A,,Clear,40,2013-03-29 09:53:00
6:53 AM,48.9,42.1,77,30.27,10.0,NE,5.8,-,N/A,,Clear,50,2013-03-29 10:53:00
7:53 AM,48.9,42.1,77,30.29,10.0,NE,4.6,-,N/A,,Clear,50,2013-03-29 11:53:00
8:53 AM,55.9,45.0,67,30.30,10.0,ENE,10.4,-,N/A,,Clear,60,2013-03-29 12:53:00
9:53 AM,64.0,44.1,48,30.32,10.0,ENE,11.5,-,N/A,,Clear,60,2013-03-29 13:53:00
10:53 AM,68.0,37.9,33,30.32,10.0,East,15.0,-,N/A,,Clear,80,2013-03-29 14:53:00
11:53 AM,71.1,37.0,29,30.31,10.0,ENE,10.4,17.3,N/A,,Clear,60,2013-03-29 15:53:00
12:53 PM,72.0,35.1,26,30.29,10.0,Variable,6.9,-,N/A,,Clear,0,2013-03-29 16:53:00
1:53 PM,73.9,35.1,24,30.26,10.0,NE,6.9,-,N/A,,Clear,40,2013-03-29 17:53:00
2:53 PM,75.9,37.9,25,30.24,10.0,Variable,6.9,-,N/A,,Clear,0,2013-03-29 18:53:00
3:53 PM,75.9,37.0,24,30.22,10.0,Calm,Calm,-,N/A,,Clear,0,2013-03-29 19:53:00
4:53 PM,77.0,39.0,25,30.20,10.0,ENE,11.5,-,N/A,,Clear,70,2013-03-29 20:53:00
5:53 PM,75.0,37.0,25,30.19,10.0,ESE,6.9,-,N/A,,Clear,110,2013-03-29 21:53:00
6:53 PM,73.9,37.9,27,30.19,10.0,SE,6.9,-,N/A,,Clear,140,2013-03-29 22:53:00
7:53 PM,70.0,39.9,33,30.21,10.0,SW,6.9,-,N/A,,Clear,230,2013-03-29 23:53:00
8:53 PM,66.0,48.9,54,30.23,10.0,North,5.8,-,N/A,,Clear,350,2013-03-30 00:53:00
9:53 PM,63.0,48.0,58,30.24,10.0,North,3.5,-,N/A,,Clear,350,2013-03-30 01:53:00
10:53 PM,61.0,45.0,56,30.25,10.0,NNE,4.6,-,N/A,,Clear,20,2013-03-30 02:53:00
11:53 PM,59.0,44.1,58,30.26,10.0,NNE,5.8,-,N/A,,Clear,30,2013-03-30 03:53:00